Time;durP1;ratioP1;P1;durP2;ratioP2;P2;SDS_P1;SDS_P2;PMS_P1;PMS_P2;Temp;Humidity;BMP_temperature;BMP_pressure;BME280_temperature;BME280_humidity;BME280_pressure;Samples;Min_cycle;Max_cycle;Signal;HPM_P1;HPM_P2
2023/11/08 00:01:39;;;;;;;15.60;1.90;;;10.00;99.90;;;;;;5051853;28;20082;-61
2023/11/08 00:04:05;;;;;;;3.83;1.50;;;10.00;99.90;;;;;;5055728;28;20024;-62
2023/11/08 00:06:32;;;;;;;5.50;1.60;;;10.00;99.90;;;;;;5055010;28;20514;-58
2023/11/08 00:08:59;;;;;;;3.65;1.00;;;10.10;99.90;;;;;;5060443;28;20029;-60
2023/11/08 00:11:25;;;;;;;6.82;1.15;;;10.10;99.90;;;;;;5058512;28;20104;-62
2023/11/08 00:13:51;;;;;;;14.27;1.15;;;10.00;99.90;;;;;;5062638;28;20581;-62
2023/11/08 00:16:17;;;;;;;8.00;2.97;;;10.10;99.90;;;;;;5070899;28;20502;-60
2023/11/08 00:18:44;;;;;;;4.55;1.05;;;10.10;99.90;;;;;;5057116;28;20045;-60
2023/11/08 00:21:10;;;;;;;6.80;0.80;;;10.10;99.90;;;;;;5063881;28;20082;-62
2023/11/08 00:23:36;;;;;;;8.55;1.27;;;10.10;99.90;;;;;;5055153;28;20036;-62
2023/11/08 00:26:01;;;;;;;5.82;1.30;;;10.10;99.90;;;;;;5062036;28;20540;-61
2023/11/08 00:28:27;;;;;;;5.85;1.00;;;10.10;99.90;;;;;;5059100;28;20100;-61
2023/11/08 00:30:53;;;;;;;5.70;1.23;;;10.10;99.90;;;;;;5064133;28;20025;-60
2023/11/08 00:33:18;;;;;;;3.80;1.20;;;10.20;99.90;;;;;;5059598;28;20036;-62
2023/11/08 00:35:44;;;;;;;5.38;1.23;;;10.20;99.90;;;;;;5064587;28;20120;-61
2023/11/08 00:38:10;;;;;;;8.48;1.00;;;10.20;99.90;;;;;;5059313;28;20510;-62
2023/11/08 00:40:35;;;;;;;6.45;1.27;;;10.20;99.90;;;;;;5059049;28;20055;-60
2023/11/08 00:43:01;;;;;;;5.75;1.38;;;10.20;99.90;;;;;;5059744;28;20033;-59
2023/11/08 00:45:26;;;;;;;4.45;1.60;;;10.20;99.90;;;;;;5057758;28;20040;-60
2023/11/08 00:47:52;;;;;;;3.35;1.02;;;10.20;99.90;;;;;;5054921;28;20029;-62
2023/11/08 00:50:18;;;;;;;7.72;0.90;;;10.20;99.90;;;;;;5057090;28;20125;-62
2023/11/08 00:52:44;;;;;;;4.88;1.17;;;10.20;99.90;;;;;;5061549;28;20514;-58
2023/11/08 00:55:09;;;;;;;8.25;1.20;;;10.20;99.90;;;;;;5050171;28;20063;-62
2023/11/08 00:57:36;;;;;;;14.55;1.15;;;10.30;99.90;;;;;;5049745;28;20124;-59
2023/11/08 01:00:07;;;;;;;2.38;0.63;;;10.20;99.90;;;;;;5050477;28;20447;-61
2023/11/08 01:02:33;;;;;;;7.35;1.10;;;10.20;99.90;;;;;;5047895;28;20046;-59
2023/11/08 01:04:58;;;;;;;8.65;1.30;;;10.30;99.90;;;;;;5051861;28;20017;-62
2023/11/08 01:07:24;;;;;;;7.18;0.75;;;10.30;99.90;;;;;;5055219;28;20076;-59
2023/11/08 01:09:49;;;;;;;7.22;1.25;;;10.20;99.90;;;;;;5051680;28;20048;-62
2023/11/08 01:12:15;;;;;;;4.45;0.77;;;10.30;99.90;;;;;;5048887;28;20542;-61
2023/11/08 01:14:41;;;;;;;2.08;0.80;;;10.30;99.90;;;;;;5049931;28;20032;-62
2023/11/08 01:17:08;;;;;;;4.85;0.82;;;10.30;99.90;;;;;;5051901;28;20033;-59
2023/11/08 01:19:36;;;;;;;7.28;1.38;;;10.30;99.90;;;;;;5052436;28;20024;-62
2023/11/08 01:22:05;;;;;;;5.30;0.85;;;10.30;99.90;;;;;;5053058;28;20112;-59
2023/11/08 01:24:32;;;;;;;3.15;0.80;;;10.30;99.90;;;;;;5048529;28;20052;-62
2023/11/08 01:27:00;;;;;;;7.15;1.00;;;10.30;99.90;;;;;;5067405;28;20032;-62
2023/11/08 01:29:25;;;;;;;9.45;1.23;;;10.30;99.90;;;;;;5052349;28;20027;-60
2023/11/08 01:31:51;;;;;;;8.00;1.10;;;10.30;99.90;;;;;;5057658;28;20033;-61
2023/11/08 01:34:16;;;;;;;4.20;0.90;;;10.30;99.90;;;;;;5058893;28;20029;-62
2023/11/08 01:36:43;;;;;;;3.55;0.80;;;10.30;99.90;;;;;;5057717;28;20435;-63
2023/11/08 01:39:09;;;;;;;4.43;0.98;;;10.30;99.90;;;;;;5055772;28;20403;-63
2023/11/08 01:41:34;;;;;;;7.32;1.00;;;10.30;99.90;;;;;;5058710;28;20033;-60
2023/11/08 01:44:00;;;;;;;4.63;1.05;;;10.20;99.90;;;;;;5056482;28;20418;-62
2023/11/08 01:46:26;;;;;;;5.65;1.20;;;10.20;99.90;;;;;;5070233;28;20491;-62
2023/11/08 01:48:52;;;;;;;6.93;1.05;;;10.20;99.90;;;;;;5060258;28;20564;-62
2023/11/08 01:51:19;;;;;;;8.65;1.02;;;10.20;99.90;;;;;;5062335;28;20038;-62
2023/11/08 01:53:47;;;;;;;5.72;1.13;;;10.20;99.90;;;;;;5062101;28;20445;-62
2023/11/08 01:56:13;;;;;;;7.55;1.50;;;10.20;99.90;;;;;;5062586;28;20029;-62
2023/11/08 01:58:40;;;;;;;7.68;1.15;;;10.20;99.90;;;;;;5055597;28;20098;-62
2023/11/08 02:01:12;;;;;;;7.70;1.50;;;10.20;99.90;;;;;;5062370;28;20376;-59
2023/11/08 02:03:40;;;;;;;3.42;1.60;;;10.20;99.90;;;;;;5048771;28;20108;-62
2023/11/08 02:06:07;;;;;;;8.88;1.20;;;10.20;99.90;;;;;;5054184;28;20398;-62
2023/11/08 02:08:34;;;;;;;6.45;1.08;;;10.20;99.90;;;;;;5048405;28;20108;-62
2023/11/08 02:11:00;;;;;;;5.93;1.15;;;10.20;99.90;;;;;;5050645;28;20073;-63
2023/11/08 02:13:29;;;;;;;4.35;1.15;;;10.20;99.90;;;;;;5048724;28;20390;-59
2023/11/08 02:15:54;;;;;;;6.65;1.27;;;10.20;99.90;;;;;;5051831;28;20039;-59
2023/11/08 02:18:20;;;;;;;10.27;1.20;;;10.20;99.90;;;;;;5048569;28;20029;-59
2023/11/08 02:20:48;;;;;;;4.68;1.27;;;10.30;99.90;;;;;;5051549;28;20020;-61
2023/11/08 02:23:14;;;;;;;6.28;1.17;;;10.30;99.90;;;;;;5042628;28;20044;-59
2023/11/08 02:25:41;;;;;;;11.13;1.42;;;10.30;99.90;;;;;;5056031;28;20028;-60
2023/11/08 02:28:06;;;;;;;5.90;1.27;;;10.30;99.90;;;;;;5054561;28;20099;-61
2023/11/08 02:30:32;;;;;;;5.70;1.20;;;10.30;99.90;;;;;;5049046;28;20120;-61
2023/11/08 02:32:58;;;;;;;6.35;1.00;;;10.30;99.90;;;;;;5055349;28;20028;-61
2023/11/08 02:35:24;;;;;;;6.70;1.23;;;10.30;99.90;;;;;;5050999;28;20081;-61
2023/11/08 02:37:49;;;;;;;9.07;0.98;;;10.30;99.90;;;;;;5056927;28;20442;-61
2023/11/08 02:40:15;;;;;;;5.60;1.55;;;10.30;99.90;;;;;;5054418;28;20083;-61
2023/11/08 02:42:42;;;;;;;8.90;1.30;;;10.20;99.90;;;;;;5057683;28;20060;-61
2023/11/08 02:45:08;;;;;;;6.57;1.30;;;10.30;99.90;;;;;;5050788;28;20023;-61
2023/11/08 02:47:34;;;;;;;1.77;0.80;;;10.30;99.90;;;;;;5051728;28;20029;-61
2023/11/08 02:50:00;;;;;;;8.80;1.38;;;10.30;99.90;;;;;;5068971;28;20025;-61
2023/11/08 02:52:26;;;;;;;4.10;1.60;;;10.30;99.90;;;;;;5059101;28;20070;-61
2023/11/08 02:54:52;;;;;;;7.88;1.33;;;10.30;99.90;;;;;;5060808;28;21403;-60
2023/11/08 02:57:18;;;;;;;10.60;1.45;;;10.30;99.90;;;;;;5061218;28;20039;-61
2023/11/08 02:59:45;;;;;;;3.80;1.15;;;10.30;99.90;;;;;;5054883;28;20032;-61
2023/11/08 03:02:10;;;;;;;9.40;1.30;;;10.30;99.90;;;;;;5052977;28;20419;-59
2023/11/08 03:04:38;;;;;;;3.72;1.00;;;10.30;99.90;;;;;;5052327;28;20035;-61
2023/11/08 03:07:04;;;;;;;2.78;1.17;;;10.30;99.90;;;;;;5055143;28;20532;-59
2023/11/08 03:09:30;;;;;;;4.25;0.70;;;10.30;99.90;;;;;;5053422;28;20041;-61
2023/11/08 03:11:57;;;;;;;7.28;1.70;;;10.20;99.90;;;;;;5049718;28;20039;-61
2023/11/08 03:14:26;;;;;;;5.40;0.90;;;10.20;99.90;;;;;;5050047;28;20041;-61
2023/11/08 03:16:53;;;;;;;4.93;1.15;;;10.30;99.90;;;;;;5056801;28;20033;-62
2023/11/08 03:19:22;;;;;;;5.55;1.00;;;10.30;99.90;;;;;;5048910;28;20398;-61
2023/11/08 03:21:48;;;;;;;5.45;1.10;;;10.30;99.90;;;;;;5051514;28;20056;-60
2023/11/08 03:24:14;;;;;;;16.48;2.28;;;10.20;99.90;;;;;;5052540;28;20043;-61
2023/11/08 03:26:40;;;;;;;4.88;0.93;;;10.10;99.90;;;;;;5051432;28;20037;-61
2023/11/08 03:29:06;;;;;;;4.03;0.98;;;10.20;99.90;;;;;;5052836;28;20037;-61
2023/11/08 03:31:32;;;;;;;4.97;1.33;;;10.20;99.90;;;;;;5054500;28;20020;-60
2023/11/08 03:33:58;;;;;;;10.80;1.42;;;10.20;99.90;;;;;;5057158;28;20036;-61
2023/11/08 03:36:28;;;;;;;4.63;0.98;;;10.10;99.90;;;;;;5058663;28;20033;-60
2023/11/08 03:38:55;;;;;;;6.40;1.48;;;10.20;99.90;;;;;;5066282;28;20110;-61
2023/11/08 03:41:24;;;;;;;3.00;1.05;;;10.20;99.90;;;;;;5058949;28;20021;-61
2023/11/08 03:43:50;;;;;;;7.75;1.52;;;10.10;99.90;;;;;;5061648;28;20542;-62
2023/11/08 03:46:16;;;;;;;8.02;1.52;;;10.10;99.90;;;;;;5060491;28;20033;-62
2023/11/08 03:48:41;;;;;;;5.80;1.30;;;10.10;99.90;;;;;;5061342;28;20037;-61
2023/11/08 03:51:08;;;;;;;8.30;1.50;;;10.10;99.90;;;;;;5060501;28;20052;-61
2023/11/08 03:53:34;;;;;;;9.07;1.42;;;10.10;99.90;;;;;;5069692;28;20032;-61
2023/11/08 03:55:59;;;;;;;11.45;1.45;;;10.10;99.90;;;;;;5062769;28;20637;-61
2023/11/08 03:58:25;;;;;;;4.35;1.15;;;10.00;99.90;;;;;;5056423;28;20494;-61
2023/11/08 04:00:50;;;;;;;11.63;1.38;;;10.00;99.90;;;;;;5060709;28;20037;-61
2023/11/08 04:03:16;;;;;;;5.72;1.27;;;10.00;99.90;;;;;;5057748;28;20044;-61
2023/11/08 04:05:41;;;;;;;6.05;1.33;;;10.00;99.90;;;;;;5032434;28;20437;-62
2023/11/08 04:08:07;;;;;;;6.85;1.20;;;9.90;99.90;;;;;;5052668;28;20481;-60
2023/11/08 04:10:33;;;;;;;5.10;1.00;;;10.00;99.90;;;;;;5049760;28;20028;-61
2023/11/08 04:12:59;;;;;;;4.65;1.20;;;9.90;99.90;;;;;;5048912;28;20439;-61
2023/11/08 04:15:25;;;;;;;5.25;1.77;;;9.90;99.90;;;;;;5051010;28;20063;-61
2023/11/08 04:17:50;;;;;;;5.03;1.45;;;9.90;99.90;;;;;;5058352;28;20079;-62
2023/11/08 04:20:16;;;;;;;14.75;1.55;;;9.90;99.90;;;;;;5050701;28;20079;-59
2023/11/08 04:22:42;;;;;;;10.25;1.23;;;9.90;99.90;;;;;;5051360;28;20032;-60
2023/11/08 04:25:10;;;;;;;5.05;1.10;;;9.90;99.90;;;;;;5038557;28;20024;-61
2023/11/08 04:27:36;;;;;;;5.18;1.65;;;9.90;99.90;;;;;;5056829;28;20046;-60
2023/11/08 04:30:02;;;;;;;11.10;1.08;;;9.90;99.90;;;;;;5066527;28;20021;-61
2023/11/08 04:32:27;;;;;;;4.97;0.90;;;9.90;99.90;;;;;;5058821;28;20068;-59
2023/11/08 04:34:53;;;;;;;6.25;1.10;;;10.00;99.90;;;;;;5060590;28;20060;-61
2023/11/08 04:37:18;;;;;;;9.73;1.10;;;10.00;99.90;;;;;;5061980;28;20027;-61
2023/11/08 04:39:49;;;;;;;5.03;1.15;;;10.00;99.90;;;;;;5062328;28;20514;-61
2023/11/08 04:42:14;;;;;;;5.38;0.90;;;9.90;99.90;;;;;;5055436;28;20029;-61
2023/11/08 04:44:45;;;;;;;7.53;1.38;;;9.90;99.90;;;;;;5056118;28;20052;-62
2023/11/08 04:47:14;;;;;;;5.80;1.05;;;9.80;99.90;;;;;;5059487;28;20028;-61
2023/11/08 04:49:40;;;;;;;3.10;1.00;;;9.80;99.90;;;;;;5059689;28;20033;-61
2023/11/08 04:52:07;;;;;;;5.68;0.95;;;9.70;99.90;;;;;;5062264;28;21671;-61
2023/11/08 04:54:33;;;;;;;5.70;1.20;;;9.60;99.90;;;;;;5061686;28;20031;-61
2023/11/08 04:56:59;;;;;;;4.60;0.85;;;9.50;99.90;;;;;;5058749;28;20399;-60
2023/11/08 04:59:24;;;;;;;5.25;2.00;;;9.50;99.90;;;;;;5061413;28;20051;-61
2023/11/08 05:01:50;;;;;;;5.80;1.17;;;9.40;99.90;;;;;;5059240;28;20459;-59
2023/11/08 05:04:15;;;;;;;3.85;1.95;;;9.30;99.90;;;;;;5050097;28;20029;-61
2023/11/08 05:06:41;;;;;;;2.20;1.00;;;9.20;99.90;;;;;;5057756;28;20031;-62
2023/11/08 05:09:07;;;;;;;9.07;1.17;;;9.20;99.90;;;;;;5063036;28;20104;-61
2023/11/08 05:11:33;;;;;;;5.95;0.90;;;9.20;99.90;;;;;;5072138;28;20206;-62
2023/11/08 05:13:58;;;;;;;2.30;0.90;;;9.10;99.90;;;;;;5059591;28;20032;-61
2023/11/08 05:16:24;;;;;;;4.13;1.15;;;8.90;99.90;;;;;;5052439;28;20032;-62
2023/11/08 05:18:50;;;;;;;4.32;1.88;;;8.90;99.90;;;;;;5055345;28;20414;-61
2023/11/08 05:21:16;;;;;;;2.60;1.08;;;8.90;99.90;;;;;;5053967;28;20629;-62
2023/11/08 05:23:41;;;;;;;10.98;1.30;;;8.80;99.90;;;;;;5058952;28;20059;-62
2023/11/08 05:26:07;;;;;;;4.63;1.10;;;8.70;99.90;;;;;;5058704;28;20021;-62
2023/11/08 05:28:32;;;;;;;5.63;1.13;;;8.70;99.90;;;;;;5058682;28;20029;-61
2023/11/08 05:30:58;;;;;;;5.90;1.10;;;8.70;99.90;;;;;;5058005;28;20032;-61
2023/11/08 05:33:23;;;;;;;5.25;1.02;;;8.70;99.90;;;;;;5057171;28;20372;-62
2023/11/08 05:35:49;;;;;;;13.43;1.33;;;8.60;99.90;;;;;;5060627;28;20048;-60
2023/11/08 05:38:14;;;;;;;3.50;1.10;;;8.50;99.90;;;;;;5050171;28;20372;-61
2023/11/08 05:40:40;;;;;;;6.15;1.00;;;8.50;99.90;;;;;;5062434;28;20107;-62
2023/11/08 05:43:06;;;;;;;5.45;1.13;;;8.50;99.90;;;;;;5053182;28;20114;-61
2023/11/08 05:45:32;;;;;;;5.63;0.95;;;8.50;99.90;;;;;;5064743;28;20040;-61
2023/11/08 05:47:58;;;;;;;5.72;1.52;;;8.50;99.90;;;;;;5061728;28;20398;-62
2023/11/08 05:50:24;;;;;;;3.47;1.13;;;8.40;99.90;;;;;;5065478;28;20498;-61
2023/11/08 05:52:49;;;;;;;7.70;1.55;;;8.40;99.90;;;;;;5058942;28;20036;-61
2023/11/08 05:55:15;;;;;;;9.20;1.42;;;8.30;99.90;;;;;;5057272;28;20550;-62
2023/11/08 05:57:41;;;;;;;5.20;1.33;;;8.40;99.90;;;;;;5059714;28;20037;-62
2023/11/08 06:00:07;;;;;;;7.43;1.23;;;8.40;99.90;;;;;;5057549;28;20031;-62
2023/11/08 06:02:34;;;;;;;3.47;1.30;;;8.40;99.90;;;;;;5056568;28;20205;-61
2023/11/08 06:05:00;;;;;;;5.35;1.20;;;8.40;99.90;;;;;;5058759;28;20027;-62
2023/11/08 06:07:26;;;;;;;6.38;1.33;;;8.40;99.90;;;;;;5053639;28;20024;-61
2023/11/08 06:09:51;;;;;;;8.05;1.25;;;8.40;99.90;;;;;;5052229;28;20083;-58
2023/11/08 06:12:17;;;;;;;8.40;1.17;;;8.40;99.90;;;;;;5054361;28;20032;-65
2023/11/08 06:14:43;;;;;;;4.63;1.20;;;8.40;99.90;;;;;;5051667;28;20029;-66
2023/11/08 06:17:09;;;;;;;4.50;0.90;;;8.30;99.90;;;;;;5052149;28;20544;-67
2023/11/08 06:19:34;;;;;;;6.63;1.13;;;8.40;99.90;;;;;;5050881;28;20037;-67
2023/11/08 06:22:01;;;;;;;5.72;1.00;;;8.40;99.90;;;;;;5053709;28;20399;-66
2023/11/08 06:24:27;;;;;;;3.60;1.05;;;8.30;99.90;;;;;;5061912;28;20039;-65
2023/11/08 06:26:52;;;;;;;13.20;1.50;;;8.40;99.90;;;;;;5059783;28;20028;-66
2023/11/08 06:29:18;;;;;;;10.07;1.25;;;8.40;99.90;;;;;;5067587;28;20033;-65
2023/11/08 06:31:43;;;;;;;5.32;1.23;;;8.50;99.90;;;;;;5057510;28;20035;-66
2023/11/08 06:34:09;;;;;;;5.93;1.25;;;8.60;99.90;;;;;;5060162;28;20020;-65
2023/11/08 06:36:34;;;;;;;8.43;1.20;;;8.60;99.90;;;;;;5057739;28;20388;-67
2023/11/08 06:39:00;;;;;;;5.28;1.42;;;8.60;99.90;;;;;;5061474;28;20491;-64
2023/11/08 06:41:26;;;;;;;9.65;1.30;;;8.60;99.90;;;;;;5058212;28;20028;-63
2023/11/08 06:43:53;;;;;;;11.80;1.70;;;8.70;99.90;;;;;;5063426;28;20039;-65
2023/11/08 06:46:19;;;;;;;5.18;1.58;;;8.70;99.90;;;;;;5068630;28;20028;-67
2023/11/08 06:48:46;;;;;;;7.20;1.65;;;8.90;99.90;;;;;;5061776;28;20398;-68
2023/11/08 06:51:12;;;;;;;10.90;1.73;;;9.00;99.90;;;;;;5065342;28;20112;-67
2023/11/08 06:53:37;;;;;;;9.07;1.27;;;9.10;99.90;;;;;;5064900;28;20117;-67
2023/11/08 06:56:03;;;;;;;5.55;2.17;;;9.20;99.90;;;;;;5062017;28;20036;-63
2023/11/08 06:58:31;;;;;;;3.60;1.23;;;9.20;99.90;;;;;;5066137;28;20395;-67
2023/11/08 07:01:05;;;;;;;9.70;1.98;;;9.30;99.90;;;;;;5069963;28;20031;-65
2023/11/08 07:03:31;;;;;;;7.60;1.77;;;9.40;99.90;;;;;;5074205;28;20107;-64
2023/11/08 07:05:56;;;;;;;5.50;1.50;;;9.40;99.90;;;;;;5072232;28;20037;-64
2023/11/08 07:08:23;;;;;;;7.25;1.65;;;9.40;99.90;;;;;;5065805;28;20033;-61
2023/11/08 07:10:50;;;;;;;5.80;1.48;;;9.50;99.90;;;;;;5068296;28;20104;-63
2023/11/08 07:13:16;;;;;;;6.78;1.20;;;9.50;99.90;;;;;;5062774;28;20025;-64
2023/11/08 07:15:41;;;;;;;12.05;1.83;;;9.60;99.90;;;;;;5070394;28;20056;-64
2023/11/08 07:18:09;;;;;;;7.10;1.60;;;9.70;99.90;;;;;;5074462;28;20399;-63
2023/11/08 07:20:36;;;;;;;12.73;1.75;;;9.70;99.90;;;;;;5069858;28;20094;-65
2023/11/08 07:23:02;;;;;;;12.27;2.33;;;9.70;99.90;;;;;;5070601;28;20029;-64
2023/11/08 07:25:28;;;;;;;9.45;1.73;;;9.80;99.90;;;;;;5066445;28;20371;-65
2023/11/08 07:27:53;;;;;;;8.65;1.77;;;9.80;99.90;;;;;;5072080;28;20078;-66
2023/11/08 07:30:19;;;;;;;12.02;1.90;;;9.90;99.90;;;;;;5071819;28;20025;-66
2023/11/08 07:32:45;;;;;;;11.25;1.85;;;9.90;99.90;;;;;;5075448;28;20043;-63
2023/11/08 07:35:12;;;;;;;6.50;2.08;;;9.90;99.90;;;;;;5068096;28;20581;-66
2023/11/08 07:37:40;;;;;;;11.52;2.33;;;10.00;99.90;;;;;;5071411;28;20032;-64
2023/11/08 07:40:07;;;;;;;12.65;3.05;;;10.00;99.90;;;;;;5068561;28;20504;-65
2023/11/08 07:42:33;;;;;;;8.32;1.50;;;10.10;99.90;;;;;;5069036;28;20015;-64
2023/11/08 07:44:59;;;;;;;8.95;1.77;;;10.10;99.90;;;;;;5065985;28;20025;-64
2023/11/08 07:47:24;;;;;;;6.50;1.45;;;10.20;99.90;;;;;;5067404;28;20028;-65
2023/11/08 07:49:50;;;;;;;4.95;1.50;;;10.20;99.90;;;;;;5071359;28;20052;-66
2023/11/08 07:52:15;;;;;;;9.18;1.50;;;10.30;99.90;;;;;;5069592;28;20029;-64
2023/11/08 07:54:41;;;;;;;5.22;1.45;;;10.30;99.90;;;;;;5070630;28;20103;-65
2023/11/08 07:57:06;;;;;;;4.57;1.83;;;10.40;99.90;;;;;;5069914;28;20025;-65
2023/11/08 07:59:32;;;;;;;6.45;1.30;;;10.40;99.90;;;;;;5071000;28;20031;-66
2023/11/08 08:01:58;;;;;;;5.78;1.30;;;10.40;99.90;;;;;;5066513;28;20095;-65
2023/11/08 08:04:25;;;;;;;28.75;2.97;;;10.40;99.90;;;;;;5071257;28;20116;-65
2023/11/08 08:06:51;;;;;;;13.57;1.88;;;10.30;99.90;;;;;;5070869;28;20119;-65
2023/11/08 08:09:17;;;;;;;5.50;1.45;;;10.30;99.90;;;;;;5072241;28;22074;-66
2023/11/08 08:11:46;;;;;;;8.77;2.13;;;10.30;99.90;;;;;;5070173;28;20023;-66
2023/11/08 08:14:12;;;;;;;7.75;1.30;;;10.30;99.90;;;;;;5065526;28;20031;-65
2023/11/08 08:16:40;;;;;;;11.65;2.00;;;10.30;99.90;;;;;;5067834;28;20028;-65
2023/11/08 08:19:06;;;;;;;7.13;1.40;;;10.30;99.90;;;;;;5068353;28;20538;-66
2023/11/08 08:21:32;;;;;;;5.70;1.00;;;10.20;99.90;;;;;;5072599;28;20031;-64
2023/11/08 08:23:58;;;;;;;6.43;1.60;;;10.30;99.90;;;;;;5063263;28;20029;-65
2023/11/08 08:26:24;;;;;;;16.27;1.70;;;10.30;99.90;;;;;;5063745;28;20043;-65
2023/11/08 08:28:50;;;;;;;8.65;1.42;;;10.40;99.90;;;;;;5068291;28;20502;-65
2023/11/08 08:31:15;;;;;;;9.05;2.33;;;10.40;99.90;;;;;;5058464;28;20478;-64
2023/11/08 08:33:41;;;;;;;7.90;1.58;;;10.50;99.90;;;;;;5072217;28;20040;-64
2023/11/08 08:36:07;;;;;;;5.78;0.90;;;10.60;99.90;;;;;;5068946;28;20495;-65
2023/11/08 08:38:32;;;;;;;6.38;0.98;;;10.60;99.90;;;;;;5064041;28;20480;-66
2023/11/08 08:40:58;;;;;;;2.40;1.00;;;10.60;99.90;;;;;;5068378;28;20150;-64
2023/11/08 08:43:24;;;;;;;3.17;0.90;;;10.70;99.90;;;;;;5073844;28;20495;-65
2023/11/08 08:45:50;;;;;;;9.52;1.30;;;10.80;99.90;;;;;;5065617;28;20020;-66
2023/11/08 08:48:17;;;;;;;6.78;0.98;;;10.80;99.90;;;;;;5067210;28;20509;-65
2023/11/08 08:50:42;;;;;;;7.30;0.95;;;10.90;99.90;;;;;;5064771;28;20029;-65
2023/11/08 08:53:08;;;;;;;6.05;1.00;;;11.00;99.90;;;;;;5063744;28;20108;-65
2023/11/08 08:55:36;;;;;;;5.72;1.10;;;11.10;99.90;;;;;;5070966;28;20029;-65
2023/11/08 08:58:02;;;;;;;4.47;0.90;;;11.20;99.90;;;;;;5068995;28;20048;-66
2023/11/08 09:00:28;;;;;;;3.50;0.85;;;11.30;99.90;;;;;;5071233;28;20486;-65
2023/11/08 09:02:54;;;;;;;6.10;1.02;;;11.30;99.90;;;;;;5069546;28;20040;-65
2023/11/08 09:05:23;;;;;;;3.95;1.00;;;11.30;99.90;;;;;;5066863;28;20017;-65
2023/11/08 09:07:50;;;;;;;6.00;0.90;;;11.20;99.90;;;;;;5066488;28;20020;-65
2023/11/08 09:10:15;;;;;;;5.88;0.90;;;11.20;99.90;;;;;;5064653;28;20434;-65
2023/11/08 09:12:42;;;;;;;5.70;1.00;;;11.20;99.90;;;;;;5069454;28;20032;-63
2023/11/08 09:15:08;;;;;;;6.97;1.10;;;11.30;99.90;;;;;;5066369;28;20478;-65
2023/11/08 09:17:34;;;;;;;6.07;1.67;;;11.30;99.90;;;;;;5069566;28;20035;-66
2023/11/08 09:20:04;;;;;;;6.10;1.20;;;11.40;99.90;;;;;;5071628;28;20047;-65
2023/11/08 09:22:29;;;;;;;4.32;0.95;;;11.40;99.90;;;;;;5066002;28;20058;-66
2023/11/08 09:24:57;;;;;;;5.80;1.10;;;11.40;99.90;;;;;;5066989;28;20024;-65
2023/11/08 09:27:23;;;;;;;4.47;1.27;;;11.40;99.90;;;;;;5062856;28;20491;-65
2023/11/08 09:29:48;;;;;;;5.32;1.15;;;11.40;99.90;;;;;;5070049;28;20134;-65
2023/11/08 09:32:14;;;;;;;4.00;1.08;;;11.40;99.90;;;;;;5068525;28;20422;-64
2023/11/08 09:34:39;;;;;;;6.97;1.30;;;11.40;99.90;;;;;;5070214;28;20028;-66
2023/11/08 09:37:05;;;;;;;10.35;1.73;;;11.30;99.90;;;;;;5066865;28;20047;-66
2023/11/08 09:39:31;;;;;;;9.57;1.30;;;11.30;99.90;;;;;;5065380;28;20634;-65
2023/11/08 09:41:57;;;;;;;9.32;1.67;;;11.30;99.90;;;;;;5063400;28;20538;-66
2023/11/08 09:44:27;;;;;;;8.18;1.20;;;11.30;99.90;;;;;;5066824;28;20113;-63
2023/11/08 09:46:54;;;;;;;8.52;1.65;;;11.30;99.90;;;;;;5060647;28;20046;-65
2023/11/08 09:49:23;;;;;;;7.93;1.65;;;11.30;99.90;;;;;;5065310;28;20043;-65
2023/11/08 09:51:50;;;;;;;10.27;2.58;;;11.50;99.90;;;;;;5071875;28;20048;-66
2023/11/08 09:54:15;;;;;;;4.90;1.17;;;11.50;99.90;;;;;;5072801;28;20438;-65
2023/11/08 09:56:44;;;;;;;8.00;1.50;;;11.50;99.90;;;;;;5067722;28;20102;-66
2023/11/08 09:59:12;;;;;;;14.23;1.75;;;11.60;99.90;;;;;;5075071;28;20057;-67
2023/11/08 10:01:39;;;;;;;13.20;1.75;;;11.70;99.90;;;;;;5072503;28;20033;-65
2023/11/08 10:04:05;;;;;;;13.07;1.80;;;11.80;99.90;;;;;;5072257;28;20031;-65
2023/11/08 10:06:34;;;;;;;5.22;1.50;;;12.10;99.90;;;;;;5067187;28;20501;-66
2023/11/08 10:08:59;;;;;;;5.78;1.20;;;12.30;99.90;;;;;;5065496;28;20109;-66
2023/11/08 10:11:29;;;;;;;8.85;1.23;;;12.60;99.90;;;;;;5075182;28;20099;-66
2023/11/08 10:13:55;;;;;;;7.30;1.67;;;12.60;99.90;;;;;;5069656;28;20021;-67
2023/11/08 10:16:22;;;;;;;6.88;1.80;;;12.60;99.90;;;;;;5068007;28;20074;-65
2023/11/08 10:18:57;;;;;;;4.63;1.50;;;12.50;99.90;;;;;;5070713;28;20031;-66
2023/11/08 10:21:25;;;;;;;5.63;1.30;;;12.40;99.90;;;;;;5069321;28;20060;-65
2023/11/08 10:23:52;;;;;;;6.38;1.27;;;12.30;99.90;;;;;;5069973;28;20055;-65
2023/11/08 10:26:22;;;;;;;5.00;1.45;;;12.40;99.90;;;;;;5068629;28;20012;-66
2023/11/08 10:29:02;;;;;;;7.40;1.40;;;12.30;99.90;;;;;;5072147;28;20371;-65
2023/11/08 10:31:44;;;;;;;10.65;1.90;;;12.20;99.90;;;;;;5072296;28;20103;-67
2023/11/08 10:34:19;;;;;;;8.88;1.52;;;12.10;99.90;;;;;;5068383;28;20090;-66
2023/11/08 10:36:45;;;;;;;10.98;1.10;;;12.00;99.90;;;;;;5076750;28;20020;-66
2023/11/08 10:39:13;;;;;;;9.00;1.30;;;12.00;99.90;;;;;;5067210;28;20021;-67
2023/11/08 10:41:41;;;;;;;6.47;1.10;;;11.90;99.90;;;;;;5074784;28;20020;-65
2023/11/08 10:44:21;;;;;;;4.57;1.10;;;12.00;99.90;;;;;;5067141;28;20024;-66
2023/11/08 10:46:57;;;;;;;6.13;1.60;;;12.00;99.90;;;;;;5070842;28;20020;-66
2023/11/08 10:49:23;;;;;;;8.32;1.35;;;12.00;99.90;;;;;;5073818;28;20398;-66
2023/11/08 10:51:50;;;;;;;6.00;1.25;;;12.00;99.90;;;;;;5068968;28;20025;-64
2023/11/08 10:54:16;;;;;;;5.22;1.55;;;12.20;99.90;;;;;;5071652;28;20482;-67
2023/11/08 10:56:45;;;;;;;7.22;1.00;;;12.20;99.90;;;;;;5073945;28;20097;-65
2023/11/08 10:59:12;;;;;;;10.95;1.60;;;12.10;99.90;;;;;;5072722;28;20509;-65
2023/11/08 11:01:41;;;;;;;6.85;1.48;;;12.20;99.90;;;;;;5068526;28;20517;-66
2023/11/08 11:04:11;;;;;;;4.55;0.80;;;12.30;99.90;;;;;;5069481;28;20024;-65
2023/11/08 11:06:40;;;;;;;11.07;1.63;;;12.30;99.90;;;;;;5061015;28;20025;-64
2023/11/08 11:09:10;;;;;;;12.18;1.50;;;12.30;99.90;;;;;;5071251;28;20503;-65
2023/11/08 11:11:51;;;;;;;14.48;1.95;;;12.30;99.90;;;;;;5059416;28;20067;-65
2023/11/08 11:14:24;;;;;;;5.72;1.25;;;12.30;99.90;;;;;;5071109;28;20390;-65
2023/11/08 11:16:56;;;;;;;4.47;1.10;;;12.30;99.90;;;;;;5065374;28;20029;-66
2023/11/08 11:19:26;;;;;;;8.55;1.38;;;12.20;99.90;;;;;;5068606;28;20025;-65
2023/11/08 11:21:56;;;;;;;3.28;1.00;;;12.20;99.90;;;;;;5059437;28;20074;-66
2023/11/08 11:24:35;;;;;;;7.72;1.60;;;12.30;99.90;;;;;;5065702;28;20029;-65
2023/11/08 11:27:01;;;;;;;6.03;1.00;;;12.30;99.90;;;;;;5068426;28;20027;-66
2023/11/08 11:29:27;;;;;;;5.80;1.23;;;12.30;99.90;;;;;;5068463;28;20429;-67
2023/11/08 11:31:53;;;;;;;5.68;1.20;;;12.40;99.90;;;;;;5058693;28;20035;-66
2023/11/08 11:34:29;;;;;;;7.43;1.10;;;12.50;99.90;;;;;;5065830;28;20021;-65
2023/11/08 11:37:10;;;;;;;17.00;1.42;;;12.50;99.90;;;;;;5065900;28;20016;-65
2023/11/08 11:39:38;;;;;;;6.88;1.20;;;12.40;99.90;;;;;;5066980;28;20596;-64
2023/11/08 11:42:07;;;;;;;14.88;1.27;;;12.40;99.90;;;;;;5065018;28;20020;-64
2023/11/08 11:44:42;;;;;;;11.07;1.77;;;12.40;99.90;;;;;;5064846;28;20082;-65
2023/11/08 11:47:09;;;;;;;6.35;1.20;;;12.70;99.90;;;;;;5070874;28;20028;-66
2023/11/08 11:49:44;;;;;;;21.88;2.00;;;12.80;99.90;;;;;;5062082;28;20012;-65
2023/11/08 11:52:11;;;;;;;3.42;0.85;;;12.90;99.90;;;;;;5068273;28;20028;-67
2023/11/08 11:54:36;;;;;;;6.72;0.80;;;12.70;99.90;;;;;;5063329;28;20029;-67
2023/11/08 11:57:03;;;;;;;7.88;1.10;;;12.90;99.90;;;;;;5070922;28;20025;-67
2023/11/08 11:59:29;;;;;;;6.40;2.65;;;13.10;99.90;;;;;;5059565;28;20021;-66
2023/11/08 12:01:55;;;;;;;3.90;1.13;;;13.10;99.90;;;;;;5067518;28;20032;-66
2023/11/08 12:04:22;;;;;;;10.95;1.10;;;13.00;99.90;;;;;;5065997;28;20040;-66
2023/11/08 12:06:49;;;;;;;3.95;0.73;;;13.10;99.90;;;;;;5068831;28;20035;-66
2023/11/08 12:09:15;;;;;;;11.40;1.17;;;13.00;99.90;;;;;;5063070;28;20574;-65
2023/11/08 12:11:47;;;;;;;4.70;1.02;;;13.00;99.90;;;;;;5067232;28;20108;-66
2023/11/08 12:14:18;;;;;;;10.77;1.10;;;13.10;99.90;;;;;;5061620;28;20550;-66
2023/11/08 12:16:45;;;;;;;6.30;1.20;;;13.30;99.90;;;;;;5069721;28;20502;-66
2023/11/08 12:19:13;;;;;;;8.25;1.15;;;13.10;99.90;;;;;;5059800;28;20020;-66
2023/11/08 12:21:39;;;;;;;8.43;1.38;;;13.40;99.90;;;;;;5066164;28;20020;-66
2023/11/08 12:24:05;;;;;;;4.28;1.02;;;13.90;99.90;;;;;;5066494;28;20505;-65
2023/11/08 12:26:31;;;;;;;7.43;1.25;;;13.90;99.90;;;;;;5062674;28;20103;-66
2023/11/08 12:28:56;;;;;;;5.07;0.75;;;13.80;99.90;;;;;;5063033;28;20425;-67
2023/11/08 12:31:27;;;;;;;5.70;0.95;;;13.90;99.90;;;;;;5068258;28;20048;-66
2023/11/08 12:33:53;;;;;;;3.28;0.80;;;13.90;99.90;;;;;;5059454;28;20037;-66
2023/11/08 12:36:19;;;;;;;6.95;1.00;;;13.70;99.90;;;;;;5062103;28;20021;-65
2023/11/08 12:38:45;;;;;;;5.35;1.25;;;13.80;99.90;;;;;;5063268;28;20086;-65
2023/11/08 12:41:11;;;;;;;5.45;0.82;;;13.70;99.90;;;;;;5062894;28;20483;-65
2023/11/08 12:43:37;;;;;;;4.63;1.50;;;13.50;99.90;;;;;;5067675;28;20080;-64
2023/11/08 12:46:04;;;;;;;4.20;1.00;;;13.50;99.90;;;;;;5059062;28;20021;-64